Time;durP1;ratioP1;P1;durP2;ratioP2;P2;SDS_P1;SDS_P2;PMS_P1;PMS_P2;Temp;Humidity;BMP_temperature;BMP_pressure;BME280_temperature;BME280_humidity;BME280_pressure;Samples;Min_cycle;Max_cycle;Signal;HPM_P1;HPM_P2
2022/06/27 00:00:08;;;;;;;13.62;4.78;;;;;;;;;;4379584;32;20023;-66
2022/06/27 00:02:33;;;;;;;9.88;4.90;;;;;;;;;;4361450;32;20432;-66
2022/06/27 00:04:58;;;;;;;7.22;4.43;;;;;;;;;;4374928;32;20054;-66
2022/06/27 00:07:23;;;;;;;9.00;5.18;;;;;;;;;;4375311;32;20429;-66
2022/06/27 00:09:49;;;;;;;10.30;4.62;;;;;;;;;;4376949;32;20077;-66
2022/06/27 00:12:14;;;;;;;15.30;5.10;;;;;;;;;;4376552;32;20038;-66
2022/06/27 00:14:39;;;;;;;8.30;4.68;;;;;;;;;;4385300;32;20105;-66
2022/06/27 00:17:04;;;;;;;9.68;5.25;;;;;;;;;;4390136;32;20058;-66
2022/06/27 00:19:30;;;;;;;8.20;5.30;;;;;;;;;;4390115;32;20056;-66
2022/06/27 00:21:55;;;;;;;14.27;6.40;;;;;;;;;;4390889;32;20066;-66
2022/06/27 00:24:20;;;;;;;10.82;6.50;;;;;;;;;;4377800;32;20026;-66
2022/06/27 00:26:46;;;;;;;10.52;6.78;;;;;;;;;;4389533;32;20451;-66
2022/06/27 00:29:11;;;;;;;11.15;6.55;;;;;;;;;;4391143;32;20027;-66
2022/06/27 00:31:36;;;;;;;11.23;7.18;;;;;;;;;;4390042;32;20052;-66
2022/06/27 00:34:02;;;;;;;12.57;7.18;;;;;;;;;;4391613;32;20061;-66
2022/06/27 00:36:27;;;;;;;11.02;7.37;;;;;;;;;;4391293;32;20391;-66
2022/06/27 00:38:52;;;;;;;10.52;7.43;;;;;;;;;;4401549;27;20092;-73
2022/06/27 00:41:20;;;;;;;11.07;7.53;;;;;;;;;;4362588;32;20404;-73
2022/06/27 00:46:37;;;;;;;13.27;7.30;;;;;;;;;;4358578;32;20440;-72
2022/06/27 00:52:00;;;;;;;11.60;8.35;;;;;;;;;;4387866;32;20056;-72
2022/06/27 01:16:32;;;;;;;12.70;8.70;;;;;;;;;;4274787;33;20043;-72
2022/06/27 01:19:08;;;;;;;;;;;;;;;;;;;;;
2022/06/27 01:21:46;;;;;;;12.68;7.93;;;;;;;;;;4359915;32;20070;-72
2022/06/27 01:24:13;;;;;;;14.85;7.95;;;;;;;;;;4378627;32;20085;-72
2022/06/27 01:26:40;;;;;;;11.27;7.95;;;;;;;;;;4378609;32;20031;-72
2022/06/27 01:29:06;;;;;;;11.02;8.80;;;;;;;;;;4378266;32;20026;-73
2022/06/27 01:47:11;;;;;;;11.32;8.77;;;;;;;;;;4288201;33;20117;-72
2022/06/27 01:49:40;;;;;;;14.87;9.27;;;;;;;;;;4282330;33;20159;-72
2022/06/27 01:52:08;;;;;;;16.98;9.38;;;;;;;;;;4317574;33;20098;-72
2022/06/27 01:54:46;;;;;;;11.90;8.00;;;;;;;;;;4347442;33;20042;-72
2022/06/27 02:00:09;;;;;;;13.65;9.63;;;;;;;;;;4309847;33;20466;-72
2022/06/27 02:02:35;;;;;;;12.50;9.57;;;;;;;;;;4358063;33;20050;-73
2022/06/27 02:05:01;;;;;;;18.50;10.05;;;;;;;;;;4363148;32;20032;-72
2022/06/27 02:07:26;;;;;;;13.57;8.40;;;;;;;;;;4362521;32;20018;-72
2022/06/27 02:09:52;;;;;;;14.80;10.23;;;;;;;;;;4362289;32;20054;-73
2022/06/27 02:12:22;;;;;;;15.45;11.10;;;;;;;;;;4362524;32;20023;-72
2022/06/27 02:14:51;;;;;;;15.73;10.75;;;;;;;;;;4362811;32;20057;-72
2022/06/27 02:17:17;;;;;;;17.17;11.60;;;;;;;;;;4362966;32;20023;-72
2022/06/27 02:19:46;;;;;;;15.75;9.70;;;;;;;;;;4362705;32;20073;-72
2022/06/27 02:22:11;;;;;;;19.48;11.57;;;;;;;;;;4362655;32;20113;-72
2022/06/27 02:24:37;;;;;;;14.02;10.60;;;;;;;;;;4362486;32;20031;-72
2022/06/27 02:27:05;;;;;;;14.75;11.52;;;;;;;;;;4362678;32;20027;-73
2022/06/27 02:29:33;;;;;;;16.30;10.77;;;;;;;;;;4347704;33;20104;-72
2022/06/27 02:32:00;;;;;;;17.98;12.00;;;;;;;;;;4346977;33;20036;-73
2022/06/27 02:34:28;;;;;;;11.25;9.32;;;;;;;;;;4346154;33;20050;-72
2022/06/27 02:36:55;;;;;;;15.25;11.65;;;;;;;;;;4347581;33;20119;-72
2022/06/27 02:42:46;;;;;;;22.75;12.80;;;;;;;;;;4315784;33;20494;-72
2022/06/27 02:45:17;;;;;;;18.00;12.95;;;;;;;;;;4316457;33;20464;-72
2022/06/27 02:50:38;;;;;;;14.77;11.60;;;;;;;;;;4330322;33;20063;-72
2022/06/27 02:53:07;;;;;;;17.77;12.85;;;;;;;;;;4358552;33;20409;-72
2022/06/27 02:55:37;;;;;;;14.05;11.43;;;;;;;;;;4357661;32;20339;-72
2022/06/27 03:04:14;;;;;;;18.62;13.25;;;;;;;;;;4301676;33;20039;-72
2022/06/27 03:09:59;;;;;;;16.60;13.38;;;;;;;;;;4315867;33;20118;-72
2022/06/27 03:12:27;;;;;;;17.27;14.85;;;;;;;;;;4314968;33;20048;-73
2022/06/27 03:15:24;;;;;;;;;;;;;;;;;;;;;
2022/06/27 03:21:22;;;;;;;21.55;16.48;;;;;;;;;;4287273;33;20088;-72
2022/06/27 03:23:51;;;;;;;17.12;13.55;;;;;;;;;;4286873;33;20075;-72
2022/06/27 03:29:45;;;;;;;20.27;15.70;;;;;;;;;;4286803;33;20056;-72
2022/06/27 03:32:11;;;;;;;20.17;15.77;;;;;;;;;;4301652;33;20427;-72
2022/06/27 03:34:36;;;;;;;20.35;16.23;;;;;;;;;;4356430;33;20169;-72
2022/06/27 03:37:05;;;;;;;17.17;14.32;;;;;;;;;;4361045;32;20058;-72
2022/06/27 03:39:30;;;;;;;22.08;15.80;;;;;;;;;;4363200;32;20039;-72
2022/06/27 03:41:58;;;;;;;24.40;15.10;;;;;;;;;;4376898;32;20044;-72
2022/06/27 03:44:24;;;;;;;19.70;15.50;;;;;;;;;;4377683;32;20098;-72
2022/06/27 03:46:50;;;;;;;19.98;15.30;;;;;;;;;;4376229;32;20058;-72
2022/06/27 03:58:15;;;;;;;18.77;15.05;;;;;;;;;;4374782;32;20058;-72
2022/06/27 04:00:40;;;;;;;23.02;16.55;;;;;;;;;;4360934;33;20043;-71
2022/06/27 04:03:06;;;;;;;17.40;15.48;;;;;;;;;;4371114;32;20408;-71
2022/06/27 04:05:31;;;;;;;21.20;14.68;;;;;;;;;;4376936;32;20513;-72
2022/06/27 04:07:57;;;;;;;18.12;14.75;;;;;;;;;;4375296;32;20027;-71
2022/06/27 04:10:22;;;;;;;24.73;15.95;;;;;;;;;;4376376;32;20026;-71
2022/06/27 04:12:47;;;;;;;20.90;14.65;;;;;;;;;;4377157;32;20298;-71
2022/06/27 04:15:13;;;;;;;17.02;13.25;;;;;;;;;;4375797;32;20031;-70
2022/06/27 04:17:38;;;;;;;17.77;13.90;;;;;;;;;;4375739;32;20353;-72
2022/06/27 04:20:04;;;;;;;16.73;11.52;;;;;;;;;;4366191;32;20057;-72
2022/06/27 04:22:30;;;;;;;13.50;10.68;;;;;;;;;;4361237;32;20417;-71
2022/06/27 04:24:55;;;;;;;15.30;10.57;;;;;;;;;;4361260;32;20315;-71
2022/06/27 04:27:21;;;;;;;16.12;10.60;;;;;;;;;;4360975;33;20496;-72
2022/06/27 04:33:11;;;;;;;13.35;10.52;;;;;;;;;;4314683;33;20444;-71
2022/06/27 04:35:40;;;;;;;15.63;10.43;;;;;;;;;;4336480;32;20098;-71
2022/06/27 04:38:06;;;;;;;16.98;11.00;;;;;;;;;;4362297;32;20054;-71
2022/06/27 04:40:32;;;;;;;16.85;11.85;;;;;;;;;;4352139;32;20480;-72
2022/06/27 04:47:16;;;;;;;16.95;10.93;;;;;;;;;;4314263;33;20106;-71
2022/06/27 04:49:52;;;;;;;;;;;;;;;;;;;;;
2022/06/27 04:52:45;;;;;;;13.40;11.25;;;;;;;;;;4256261;33;20026;-72
2022/06/27 04:55:12;;;;;;;19.25;12.43;;;;;;;;;;4253389;33;20145;-72
2022/06/27 04:57:38;;;;;;;15.23;11.38;;;;;;;;;;4284154;33;20041;-71
2022/06/27 05:00:05;;;;;;;13.65;10.40;;;;;;;;;;4318304;33;20047;-72
2022/06/27 05:02:30;;;;;;;18.80;12.77;;;;;;;;;;4333846;33;20066;-72
2022/06/27 05:04:56;;;;;;;21.73;12.63;;;;;;;;;;4360090;33;20414;-72
2022/06/27 05:13:14;;;;;;;17.92;12.35;;;;;;;;;;4314502;33;20111;-71
2022/06/27 05:16:16;;;;;;;16.75;12.85;;;;;;;;;;4310691;33;20032;-72
2022/06/27 05:19:09;;;;;;;20.27;14.30;;;;;;;;;;4315782;33;20082;-72
2022/06/27 05:21:38;;;;;;;15.60;13.15;;;;;;;;;;4328354;33;20028;-73
2022/06/27 05:24:11;;;;;;;14.35;12.57;;;;;;;;;;4327166;33;20052;-72
2022/06/27 05:26:39;;;;;;;18.87;14.32;;;;;;;;;;4328402;33;20028;-72
2022/06/27 05:29:08;;;;;;;17.17;13.52;;;;;;;;;;4360114;33;20054;-71
2022/06/27 05:32:24;;;;;;;22.05;13.80;;;;;;;;;;4356693;33;20165;-72
2022/06/27 05:34:52;;;;;;;18.50;13.07;;;;;;;;;;4348172;33;20104;-71
2022/06/27 05:37:20;;;;;;;17.02;13.95;;;;;;;;;;4358831;33;20094;-72
2022/06/27 05:42:39;;;;;;;19.60;15.60;;;;;;;;;;4359387;32;20077;-71
2022/06/27 05:45:05;;;;;;;22.30;15.48;;;;;;;;;;4360201;33;20053;-71
2022/06/27 05:47:36;;;;;;;17.12;14.82;;;;;;;;;;4359667;33;20031;-71
2022/06/27 05:50:04;;;;;;;20.25;14.60;;;;;;;;;;4347216;33;20059;-70
2022/06/27 05:52:31;;;;;;;15.25;13.30;;;;;;;;;;4351085;32;20031;-71
2022/06/27 05:54:59;;;;;;;18.85;15.07;;;;;;;;;;4361583;32;20023;-71
2022/06/27 05:57:25;;;;;;;21.87;14.05;;;;;;;;;;4376286;32;20437;-70
2022/06/27 05:59:53;;;;;;;21.40;14.98;;;;;;;;;;4352308;32;20019;-71
2022/06/27 06:02:50;;;;;;;;;;;;;;;;;;;;;
2022/06/27 06:05:06;;;;;;;23.27;16.10;;;;;;;;;;4370429;32;20070;-73
2022/06/27 06:07:31;;;;;;;17.52;15.65;;;;;;;;;;4363789;32;20370;-71
2022/06/27 06:09:57;;;;;;;21.15;15.73;;;;;;;;;;4376544;32;20108;-72
2022/06/27 06:12:37;;;;;;;18.83;15.27;;;;;;;;;;4366282;32;20065;-71
2022/06/27 06:15:03;;;;;;;18.60;14.20;;;;;;;;;;4369116;32;20076;-70
2022/06/27 06:17:34;;;;;;;16.75;13.23;;;;;;;;;;4377109;32;20424;-71
2022/06/27 06:20:05;;;;;;;15.90;13.38;;;;;;;;;;4370741;32;20050;-67
2022/06/27 06:22:31;;;;;;;18.73;13.73;;;;;;;;;;4365171;32;20042;-71
2022/06/27 06:24:56;;;;;;;27.33;14.20;;;;;;;;;;4377278;32;20129;-71
2022/06/27 06:27:22;;;;;;;18.27;13.23;;;;;;;;;;4375980;32;20084;-71
2022/06/27 06:29:47;;;;;;;19.70;12.52;;;;;;;;;;4377257;32;20035;-71
2022/06/27 06:32:13;;;;;;;17.27;13.07;;;;;;;;;;4388055;32;20030;-71
2022/06/27 06:34:48;;;;;;;17.62;12.88;;;;;;;;;;4377424;32;20079;-71
2022/06/27 06:37:14;;;;;;;16.12;12.95;;;;;;;;;;4378261;32;20023;-71
2022/06/27 06:39:44;;;;;;;18.27;13.52;;;;;;;;;;4377066;32;20458;-71
2022/06/27 06:42:10;;;;;;;19.55;13.00;;;;;;;;;;4376980;32;20039;-71
2022/06/27 06:44:35;;;;;;;20.23;14.57;;;;;;;;;;4366656;32;20073;-71
2022/06/27 06:50:07;;;;;;;16.90;13.15;;;;;;;;;;4377005;32;20380;-71
2022/06/27 06:52:39;;;;;;;15.48;12.15;;;;;;;;;;4376867;32;20369;-72
2022/06/27 06:58:08;;;;;;;34.28;12.82;;;;;;;;;;4375179;32;20065;-72
2022/06/27 07:00:38;;;;;;;16.58;12.77;;;;;;;;;;4377249;32;20031;-72
2022/06/27 07:03:04;;;;;;;18.10;12.88;;;;;;;;;;4377076;32;20407;-70
2022/06/27 07:05:31;;;;;;;16.77;12.40;;;;;;;;;;4364630;32;20035;-71
2022/06/27 07:08:00;;;;;;;12.57;11.27;;;;;;;;;;4380292;32;20050;-71
2022/06/27 07:10:28;;;;;;;15.23;12.18;;;;;;;;;;4375917;32;20067;-71
2022/06/27 07:12:54;;;;;;;17.20;11.95;;;;;;;;;;4377232;32;20068;-71
2022/06/27 07:15:19;;;;;;;17.15;12.95;;;;;;;;;;4375955;32;20433;-70
2022/06/27 07:17:47;;;;;;;27.23;13.82;;;;;;;;;;4361769;32;20032;-71
2022/06/27 07:20:14;;;;;;;19.92;12.93;;;;;;;;;;4360586;32;20035;-71
2022/06/27 07:22:40;;;;;;;18.30;12.82;;;;;;;;;;4374896;32;20030;-71
2022/06/27 07:25:06;;;;;;;12.88;11.20;;;;;;;;;;4374831;32;20333;-71
2022/06/27 07:27:35;;;;;;;17.42;12.10;;;;;;;;;;4363352;32;20157;-72
2022/06/27 07:30:02;;;;;;;17.20;13.65;;;;;;;;;;4376015;32;20069;-71
2022/06/27 07:32:28;;;;;;;18.75;13.32;;;;;;;;;;4371610;32;20090;-71
2022/06/27 07:38:16;;;;;;;16.80;12.80;;;;;;;;;;4321210;33;20087;-71
2022/06/27 07:40:42;;;;;;;16.52;13.15;;;;;;;;;;4315675;33;20064;-72
2022/06/27 07:43:13;;;;;;;14.63;12.05;;;;;;;;;;4314960;33;20062;-72
2022/06/27 07:45:39;;;;;;;16.75;13.55;;;;;;;;;;4309517;33;20433;-71
2022/06/27 07:48:06;;;;;;;16.08;13.82;;;;;;;;;;4323783;33;20035;-71
2022/06/27 07:50:38;;;;;;;17.30;12.52;;;;;;;;;;4366364;32;20067;-71
2022/06/27 07:56:03;;;;;;;19.90;13.45;;;;;;;;;;4375133;32;20103;-72
2022/06/27 07:58:38;;;;;;;18.58;13.23;;;;;;;;;;4362466;32;20112;-72
2022/06/27 08:01:05;;;;;;;21.50;13.10;;;;;;;;;;4365819;32;20035;-71
2022/06/27 08:03:39;;;;;;;16.92;13.60;;;;;;;;;;4375078;32;20057;-71
2022/06/27 08:06:10;;;;;;;19.80;13.45;;;;;;;;;;4375467;32;20022;-71
2022/06/27 08:08:39;;;;;;;19.30;13.43;;;;;;;;;;4366145;32;20488;-72
2022/06/27 08:11:23;;;;;;;14.90;12.25;;;;;;;;;;4371735;32;20047;-72
2022/06/27 08:13:50;;;;;;;14.57;12.65;;;;;;;;;;4360652;32;20046;-71
2022/06/27 08:16:18;;;;;;;15.13;13.25;;;;;;;;;;4375548;32;20023;-71
2022/06/27 08:18:47;;;;;;;17.90;13.23;;;;;;;;;;4361436;32;20023;-72
2022/06/27 08:21:34;;;;;;;18.95;12.88;;;;;;;;;;4374724;32;20051;-72
2022/06/27 08:24:11;;;;;;;;;;;;;;;;;;;;;
2022/06/27 08:26:58;;;;;;;20.50;11.93;;;;;;;;;;4358849;32;20066;-71
2022/06/27 08:33:23;;;;;;;15.35;11.65;;;;;;;;;;4296907;33;20134;-70
2022/06/27 08:35:49;;;;;;;14.43;10.43;;;;;;;;;;4270057;33;20075;-71
2022/06/27 08:38:17;;;;;;;13.82;10.43;;;;;;;;;;4347807;32;20057;-71
2022/06/27 08:40:42;;;;;;;16.48;11.23;;;;;;;;;;4364981;32;20158;-71
2022/06/27 08:43:09;;;;;;;17.17;12.05;;;;;;;;;;4346612;33;20035;-72
2022/06/27 08:45:37;;;;;;;16.25;11.25;;;;;;;;;;4362216;32;20057;-71
2022/06/27 08:48:07;;;;;;;18.98;11.20;;;;;;;;;;4367082;32;20437;-71
2022/06/27 08:50:35;;;;;;;13.15;10.32;;;;;;;;;;4359242;32;20071;-72
2022/06/27 08:53:02;;;;;;;16.05;10.93;;;;;;;;;;4368694;32;20042;-72
2022/06/27 08:55:28;;;;;;;16.30;11.55;;;;;;;;;;4367328;32;20082;-71
2022/06/27 08:57:53;;;;;;;14.75;11.12;;;;;;;;;;4366383;32;20056;-72
2022/06/27 09:00:22;;;;;;;21.05;11.15;;;;;;;;;;4371599;32;20095;-71
2022/06/27 09:02:47;;;;;;;14.77;10.93;;;;;;;;;;4363051;32;20030;-72
2022/06/27 09:05:19;;;;;;;18.62;12.43;;;;;;;;;;4362242;32;20096;-71
2022/06/27 09:08:02;;;;;;;;;;;;;;;;;;;;;
2022/06/27 09:10:46;;;;;;;13.07;10.25;;;;;;;;;;4360793;32;20035;-71
2022/06/27 09:13:37;;;;;;;15.20;10.93;;;;;;;;;;4371461;32;20161;-70
2022/06/27 09:19:06;;;;;;;18.02;13.35;;;;;;;;;;4347324;32;20065;-71
2022/06/27 09:22:16;;;;;;;18.02;12.45;;;;;;;;;;4373093;32;20062;-71
2022/06/27 09:25:00;;;;;;;17.62;12.32;;;;;;;;;;4342187;32;20030;-71
2022/06/27 09:27:42;;;;;;;15.85;12.57;;;;;;;;;;4368656;32;20100;-71
2022/06/27 09:30:29;;;;;;;20.25;13.55;;;;;;;;;;4375124;32;20023;-71
2022/06/27 09:32:58;;;;;;;17.73;13.38;;;;;;;;;;4373254;32;20027;-72
2022/06/27 09:35:24;;;;;;;24.95;14.60;;;;;;;;;;4362599;32;20042;-72
2022/06/27 09:37:57;;;;;;;18.48;13.18;;;;;;;;;;4365092;32;20046;-71
2022/06/27 09:40:25;;;;;;;18.30;13.73;;;;;;;;;;4367107;32;20168;-71
2022/06/27 09:42:55;;;;;;;19.55;12.10;;;;;;;;;;4376939;32;20066;-71
2022/06/27 09:45:24;;;;;;;21.98;11.43;;;;;;;;;;4371197;32;20049;-71
2022/06/27 09:51:31;;;;;;;;;;;;;;;;;;;;;
2022/06/27 09:59:53;;;;;;;17.95;12.43;;;;;;;;;;4377237;32;20065;-71
2022/06/27 10:05:07;;;;;;;16.87;11.70;;;;;;;;;;4365537;32;20078;-71
2022/06/27 10:07:34;;;;;;;18.83;11.20;;;;;;;;;;4366136;32;20066;-72
2022/06/27 10:09:59;;;;;;;13.62;9.48;;;;;;;;;;4383172;32;20409;-71
2022/06/27 10:12:31;;;;;;;12.80;9.45;;;;;;;;;;4376745;32;20049;-72
2022/06/27 10:15:16;;;;;;;13.38;9.27;;;;;;;;;;4372850;32;20030;-73
2022/06/27 10:17:44;;;;;;;19.50;11.68;;;;;;;;;;4368653;32;20048;-72
2022/06/27 10:20:20;;;;;;;20.02;10.57;;;;;;;;;;4364502;32;20031;-70
2022/06/27 10:23:03;;;;;;;17.05;11.68;;;;;;;;;;4362131;32;20031;-71
2022/06/27 10:25:29;;;;;;;19.42;12.63;;;;;;;;;;4377934;32;20096;-71
2022/06/27 10:28:42;;;;;;;17.37;12.43;;;;;;;;;;4376486;32;20065;-71
2022/06/27 10:31:08;;;;;;;19.50;12.80;;;;;;;;;;4372773;32;20024;-71
2022/06/27 10:36:56;;;;;;;25.00;13.18;;;;;;;;;;4338904;33;20067;-71
2022/06/27 10:39:25;;;;;;;19.42;12.50;;;;;;;;;;4344417;33;20066;-71
2022/06/27 10:41:54;;;;;;;18.55;13.48;;;;;;;;;;4351584;32;20103;-71
2022/06/27 10:47:33;;;;;;;18.80;14.02;;;;;;;;;;4293372;33;20092;-72
2022/06/27 10:50:11;;;;;;;18.98;14.10;;;;;;;;;;4378579;32;20361;-71
2022/06/27 10:52:36;;;;;;;20.27;14.60;;;;;;;;;;4381821;32;20058;-72
2022/06/27 10:55:19;;;;;;;22.70;14.80;;;;;;;;;;4367911;32;20082;-71
2022/06/27 10:57:48;;;;;;;19.15;12.75;;;;;;;;;;4366099;32;20027;-71
2022/06/27 11:00:32;;;;;;;19.52;12.93;;;;;;;;;;4361718;32;20425;-71
2022/06/27 11:03:01;;;;;;;22.58;14.23;;;;;;;;;;4380336;32;20027;-71
2022/06/27 11:11:41;;;;;;;16.27;12.35;;;;;;;;;;4375530;32;20128;-73
2022/06/27 11:14:16;;;;;;;17.35;14.25;;;;;;;;;;4369446;32;20057;-72
2022/06/27 11:16:41;;;;;;;19.40;14.93;;;;;;;;;;4376742;32;20031;-72
2022/06/27 11:22:36;;;;;;;25.12;15.70;;;;;;;;;;4391490;32;20637;-71
2022/06/27 11:25:02;;;;;;;19.90;15.40;;;;;;;;;;4379505;32;20038;-71
2022/06/27 11:27:50;;;;;;;23.23;15.05;;;;;;;;;;4365727;32;20418;-71
2022/06/27 11:33:28;;;;;;;21.55;15.02;;;;;;;;;;4370522;32;20405;-71
2022/06/27 11:39:21;;;;;;;18.98;13.23;;;;;;;;;;4321947;33;20094;-71
2022/06/27 11:42:02;;;;;;;20.40;12.48;;;;;;;;;;4377398;32;20435;-71
2022/06/27 11:44:27;;;;;;;17.52;12.70;;;;;;;;;;4362637;32;20446;-65
2022/06/27 11:47:12;;;;;;;20.65;12.45;;;;;;;;;;4372652;32;20066;-72
2022/06/27 11:52:55;;;;;;;16.27;12.00;;;;;;;;;;4310047;33;20048;-72
2022/06/27 11:58:55;;;;;;;;;;;;;;;;;;;;;
2022/06/27 12:04:39;;;;;;;14.90;10.85;;;;;;;;;;4311633;33;20070;-71
2022/06/27 12:10:44;;;;;;;15.48;11.15;;;;;;;;;;4311681;33;20090;-71
2022/06/27 12:13:29;;;;;;;14.55;9.77;;;;;;;;;;4303513;33;20032;-72
2022/06/27 12:15:59;;;;;;;21.83;11.77;;;;;;;;;;4308695;33;20419;-71
2022/06/27 12:18:32;;;;;;;11.25;8.30;;;;;;;;;;4315777;33;20027;-71
2022/06/27 12:21:15;;;;;;;15.50;8.00;;;;;;;;;;4360478;32;20377;-71
2022/06/27 12:23:40;;;;;;;13.05;6.40;;;;;;;;;;4375705;32;20027;-71
2022/06/27 12:26:06;;;;;;;10.05;4.65;;;;;;;;;;4375694;32;20393;-71
2022/06/27 12:28:41;;;;;;;;;;;;;;;;;;;;;
2022/06/27 12:31:07;;;;;;;9.80;4.45;;;;;;;;;;4359834;32;20463;-72
2022/06/27 12:33:35;;;;;;;9.88;4.15;;;;;;;;;;4381441;32;20019;-71
2022/06/27 12:36:04;;;;;;;13.00;4.62;;;;;;;;;;4383759;32;20023;-72
2022/06/27 12:38:29;;;;;;;9.18;3.97;;;;;;;;;;4374554;32;20436;-72
2022/06/27 12:41:11;;;;;;;8.95;4.18;;;;;;;;;;4361350;32;20058;-71
2022/06/27 12:43:37;;;;;;;7.82;3.50;;;;;;;;;;4379787;32;20069;-72
2022/06/27 12:46:02;;;;;;;8.20;4.10;;;;;;;;;;4373359;32;20058;-71
2022/06/27 12:48:28;;;;;;;14.93;5.85;;;;;;;;;;4368705;32;20448;-71
2022/06/27 12:50:53;;;;;;;13.90;6.55;;;;;;;;;;4374841;32;20089;-71
2022/06/27 12:53:21;;;;;;;8.85;5.68;;;;;;;;;;4374867;32;20023;-72
2022/06/27 12:55:46;;;;;;;7.80;3.12;;;;;;;;;;4363581;32;20085;-71
2022/06/27 12:58:25;;;;;;;7.70;2.97;;;;;;;;;;4371979;32;20062;-70
2022/06/27 13:00:50;;;;;;;4.80;2.47;;;;;;;;;;4372216;32;20027;-71
2022/06/27 13:03:16;;;;;;;4.80;2.08;;;;;;;;;;4370556;32;20023;-71
2022/06/27 13:05:41;;;;;;;3.87;2.00;;;;;;;;;;4365193;32;20054;-72
2022/06/27 13:08:07;;;;;;;5.53;2.10;;;;;;;;;;4373319;32;20018;-73
2022/06/27 13:10:39;;;;;;;14.10;3.10;;;;;;;;;;4372585;32;20058;-72
2022/06/27 13:13:04;;;;;;;7.87;3.67;;;;;;;;;;4357153;32;20027;-71
2022/06/27 13:15:32;;;;;;;7.45;2.60;;;;;;;;;;4371245;32;20057;-71
2022/06/27 13:18:00;;;;;;;10.23;3.87;;;;;;;;;;4365925;32;20085;-72
2022/06/27 13:20:26;;;;;;;8.32;3.67;;;;;;;;;;4386907;32;20027;-72
2022/06/27 13:22:51;;;;;;;14.13;4.70;;;;;;;;;;4389536;32;20031;-74
2022/06/27 13:25:19;;;;;;;8.07;4.93;;;;;;;;;;4372869;32;20084;-73
2022/06/27 13:30:34;;;;;;;11.43;5.18;;;;;;;;;;4356861;32;20102;-74
2022/06/27 13:32:59;;;;;;;14.10;5.68;;;;;;;;;;4360410;32;20028;-74
2022/06/27 13:35:26;;;;;;;12.77;5.50;;;;;;;;;;4366856;32;20031;-73
2022/06/27 13:37:51;;;;;;;17.02;9.05;;;;;;;;;;4359525;32;20102;-75
2022/06/27 13:40:16;;;;;;;15.82;7.53;;;;;;;;;;4358040;32;20028;-75
2022/06/27 13:42:42;;;;;;;10.45;6.00;;;;;;;;;;4351178;32;20082;-75
2022/06/27 13:45:07;;;;;;;9.05;7.07;;;;;;;;;;4369781;32;20035;-75
2022/06/27 13:47:35;;;;;;;16.05;8.10;;;;;;;;;;4362005;32;20384;-75
2022/06/27 13:50:02;;;;;;;15.52;7.68;;;;;;;;;;4358747;32;20078;-74
2022/06/27 13:52:31;;;;;;;20.40;9.88;;;;;;;;;;4358922;32;20085;-75
2022/06/27 13:54:57;;;;;;;14.93;8.93;;;;;;;;;;4369406;32;20393;-74
2022/06/27 13:57:22;;;;;;;15.60;7.75;;;;;;;;;;4351432;32;20089;-75
2022/06/27 13:59:47;;;;;;;9.73;5.32;;;;;;;;;;4351277;32;20040;-74
2022/06/27 14:02:12;;;;;;;14.70;7.32;;;;;;;;;;4341379;33;20099;-72
2022/06/27 14:04:38;;;;;;;18.52;7.78;;;;;;;;;;4360274;32;20096;-75
2022/06/27 14:09:51;;;;;;;22.10;11.05;;;;;;;;;;4361025;32;20046;-74
2022/06/27 14:12:17;;;;;;;17.05;7.87;;;;;;;;;;4368638;32;20050;-74
2022/06/27 14:14:42;;;;;;;21.10;8.85;;;;;;;;;;4362458;32;20112;-75
2022/06/27 14:17:18;;;;;;;;;;;;;;;;;;;;;
2022/06/27 14:19:53;;;;;;;12.30;6.82;;;;;;;;;;4362279;32;20061;-75
2022/06/27 14:22:18;;;;;;;16.00;5.97;;;;;;;;;;4361956;32;20299;-74
2022/06/27 14:24:43;;;;;;;19.25;7.35;;;;;;;;;;4362644;32;20066;-74
2022/06/27 14:27:09;;;;;;;18.80;7.60;;;;;;;;;;4362276;32;20440;-74
2022/06/27 14:29:34;;;;;;;13.35;7.07;;;;;;;;;;4368461;32;20102;-75
2022/06/27 14:31:59;;;;;;;17.10;7.03;;;;;;;;;;4364484;32;20031;-74
2022/06/27 14:34:25;;;;;;;17.00;6.62;;;;;;;;;;4371734;32;20019;-75
2022/06/27 14:36:50;;;;;;;14.75;4.95;;;;;;;;;;4366943;32;20027;-74
2022/06/27 14:39:15;;;;;;;14.32;5.05;;;;;;;;;;4366353;32;20149;-73
2022/06/27 14:41:41;;;;;;;16.75;6.60;;;;;;;;;;4352035;32;20223;-74
2022/06/27 14:44:10;;;;;;;13.15;4.18;;;;;;;;;;4357078;32;20093;-72
2022/06/27 14:46:35;;;;;;;15.45;5.40;;;;;;;;;;4373375;32;20053;-72
2022/06/27 14:49:01;;;;;;;13.13;4.43;;;;;;;;;;4372174;32;20022;-71
2022/06/27 14:51:26;;;;;;;7.68;3.70;;;;;;;;;;4371356;32;20028;-74
2022/06/27 14:53:51;;;;;;;9.68;3.58;;;;;;;;;;4374687;32;20085;-72
2022/06/27 14:56:17;;;;;;;11.65;3.25;;;;;;;;;;4376136;32;20455;-71
2022/06/27 14:58:42;;;;;;;9.82;2.90;;;;;;;;;;4377003;32;20050;-74
2022/06/27 15:01:08;;;;;;;10.20;3.30;;;;;;;;;;4369771;32;20475;-74
2022/06/27 15:03:33;;;;;;;10.20;2.92;;;;;;;;;;4375225;32;20039;-73
2022/06/27 15:05:58;;;;;;;9.82;3.53;;;;;;;;;;4363468;32;20040;-74
2022/06/27 15:08:23;;;;;;;9.23;2.83;;;;;;;;;;4369796;32;20027;-75
2022/06/27 15:13:32;;;;;;;9.15;3.10;;;;;;;;;;4371699;32;20450;-74
2022/06/27 15:15:58;;;;;;;8.27;3.12;;;;;;;;;;4370369;32;20027;-74
2022/06/27 15:18:23;;;;;;;6.32;2.70;;;;;;;;;;4370701;32;20039;-73
2022/06/27 15:20:48;;;;;;;5.97;2.22;;;;;;;;;;4361558;32;20039;-74
2022/06/27 15:23:14;;;;;;;5.62;2.28;;;;;;;;;;4367046;32;20395;-73
2022/06/27 15:25:42;;;;;;;5.95;2.30;;;;;;;;;;4374031;32;20425;-74
2022/06/27 15:28:07;;;;;;;6.68;2.58;;;;;;;;;;4373994;32;20030;-72
2022/06/27 15:30:37;;;;;;;8.18;2.72;;;;;;;;;;4367986;32;20065;-74
2022/06/27 15:33:02;;;;;;;7.20;2.67;;;;;;;;;;4361558;32;20031;-73
2022/06/27 15:35:29;;;;;;;6.22;1.95;;;;;;;;;;4358515;32;20038;-74
2022/06/27 15:37:57;;;;;;;10.65;2.58;;;;;;;;;;4364529;32;20422;-73
2022/06/27 15:40:23;;;;;;;5.53;2.15;;;;;;;;;;4374745;32;20535;-74
2022/06/27 15:43:08;;;;;;;6.50;2.08;;;;;;;;;;4375235;32;20129;-74
2022/06/27 15:45:33;;;;;;;5.25;2.08;;;;;;;;;;4362072;32;20098;-73
2022/06/27 15:48:01;;;;;;;10.45;2.70;;;;;;;;;;4369557;32;20162;-74
2022/06/27 15:50:39;;;;;;;9.18;2.90;;;;;;;;;;4375091;32;20105;-73
2022/06/27 15:53:04;;;;;;;8.35;3.15;;;;;;;;;;4374534;32;20027;-73
2022/06/27 15:55:30;;;;;;;6.30;2.50;;;;;;;;;;4375650;32;20097;-73
2022/06/27 15:57:59;;;;;;;5.60;2.40;;;;;;;;;;4376118;32;20022;-74
2022/06/27 16:00:25;;;;;;;6.62;2.22;;;;;;;;;;4375388;32;20456;-72
2022/06/27 16:02:51;;;;;;;8.15;2.80;;;;;;;;;;4376127;32;20020;-73
2022/06/27 16:05:23;;;;;;;9.48;2.92;;;;;;;;;;4373552;32;20061;-75
2022/06/27 16:07:48;;;;;;;7.37;2.67;;;;;;;;;;4368491;32;20027;-74
2022/06/27 16:10:14;;;;;;;7.87;3.03;;;;;;;;;;4361418;32;20413;-74
2022/06/27 16:12:39;;;;;;;10.80;2.70;;;;;;;;;;4360426;32;20053;-73
2022/06/27 16:15:07;;;;;;;7.43;3.00;;;;;;;;;;4360189;32;20150;-74
2022/06/27 16:17:33;;;;;;;7.70;2.87;;;;;;;;;;4373368;32;20119;-74
2022/06/27 16:20:07;;;;;;;7.40;3.22;;;;;;;;;;4371704;32;20039;-73
2022/06/27 16:22:39;;;;;;;5.60;2.28;;;;;;;;;;4361319;32;20489;-73
2022/06/27 16:25:05;;;;;;;3.87;2.00;;;;;;;;;;4360071;32;20019;-74
2022/06/27 16:27:30;;;;;;;6.95;2.78;;;;;;;;;;4360976;32;20368;-74
2022/06/27 16:29:56;;;;;;;5.93;2.42;;;;;;;;;;4360253;32;20024;-74
2022/06/27 16:32:30;;;;;;;9.20;2.50;;;;;;;;;;4361053;32;20019;-72
2022/06/27 16:35:20;;;;;;;8.05;2.10;;;;;;;;;;4361151;32;20027;-73
2022/06/27 16:41:23;;;;;;;;;;;;;;;;;;;;;
2022/06/27 16:44:08;;;;;;;5.53;1.90;;;;;;;;;;4369846;32;20057;-73
2022/06/27 16:46:49;;;;;;;7.03;2.00;;;;;;;;;;4375180;32;20185;-73
2022/06/27 16:55:27;;;;;;;7.93;2.60;;;;;;;;;;4314690;33;20072;-73
2022/06/27 16:57:55;;;;;;;9.10;2.20;;;;;;;;;;4366452;32;20031;-73
2022/06/27 17:00:51;;;;;;;;;;;;;;;;;;;;;
2022/06/27 17:06:54;;;;;;;9.32;2.60;;;;;;;;;;4379671;32;20160;-72
2022/06/27 17:09:19;;;;;;;9.60;3.50;;;;;;;;;;4390763;32;20046;-73
2022/06/27 17:18:29;;;;;;;5.80;2.30;;;;;;;;;;4330226;33;20034;-72
2022/06/27 17:32:54;;;;;;;7.28;2.53;;;;;;;;;;4271009;33;20380;-72
2022/06/27 17:35:20;;;;;;;6.18;2.35;;;;;;;;;;4289697;33;20407;-72
2022/06/27 17:37:52;;;;;;;4.90;1.83;;;;;;;;;;4313321;33;20054;-72
2022/06/27 17:40:23;;;;;;;5.97;2.05;;;;;;;;;;4329997;33;20024;-72
2022/06/27 17:43:00;;;;;;;2.92;1.60;;;;;;;;;;4330308;33;20168;-73
2022/06/27 17:45:48;;;;;;;3.00;1.50;;;;;;;;;;4359653;32;20072;-73
2022/06/27 17:48:20;;;;;;;4.40;1.70;;;;;;;;;;4374880;32;20031;-72
2022/06/27 17:51:37;;;;;;;7.85;2.35;;;;;;;;;;4375508;32;20023;-73
2022/06/27 17:54:37;;;;;;;3.22;1.80;;;;;;;;;;4316502;33;20028;-72
2022/06/27 17:57:47;;;;;;;4.75;1.70;;;;;;;;;;4317361;33;20064;-73
2022/06/27 18:00:14;;;;;;;7.82;2.33;;;;;;;;;;4275052;33;20063;-72
2022/06/27 18:02:40;;;;;;;7.28;1.58;;;;;;;;;;4354264;32;20023;-72
2022/06/27 18:05:05;;;;;;;4.55;1.55;;;;;;;;;;4378738;32;20098;-72
2022/06/27 18:07:31;;;;;;;4.45;1.45;;;;;;;;;;4377830;32;20042;-72
2022/06/27 18:09:56;;;;;;;3.87;1.62;;;;;;;;;;4379276;32;20023;-72
2022/06/27 18:12:21;;;;;;;3.62;1.87;;;;;;;;;;4379113;32;20467;-72
2022/06/27 18:14:47;;;;;;;4.55;1.70;;;;;;;;;;4378917;32;20046;-71